sensor_id;sensor_type;location;lat;lon;timestamp;pressure;altitude;pressure_sealevel;temperature;humidity
70488;BME280;57976;48.174;16.370;2022-09-30T00:01:45;98251.84;;;14.63;68.88
70488;BME280;57976;48.174;16.370;2022-09-30T00:03:50;98250.33;;;14.62;68.65
70488;BME280;57976;48.174;16.370;2022-09-30T00:05:59;98253.11;;;14.62;68.86
70488;BME280;57976;48.174;16.370;2022-09-30T00:08:12;98255.79;;;14.61;68.91
70488;BME280;57976;48.174;16.370;2022-09-30T00:10:17;98249.67;;;14.61;69.12
70488;BME280;57976;48.174;16.370;2022-09-30T00:12:22;98250.32;;;14.60;69.34
70488;BME280;57976;48.174;16.370;2022-09-30T00:14:26;98250.33;;;14.57;69.35
70488;BME280;57976;48.174;16.370;2022-09-30T00:16:33;98248.11;;;14.44;69.63
70488;BME280;57976;48.174;16.370;2022-09-30T00:18:39;98248.70;;;14.34;70.05
70488;BME280;57976;48.174;16.370;2022-09-30T00:20:44;98254.62;;;14.32;70.66
70488;BME280;57976;48.174;16.370;2022-09-30T00:22:49;98253.45;;;14.34;70.73
70488;BME280;57976;48.174;16.370;2022-09-30T00:24:54;98246.73;;;14.37;70.98
70488;BME280;57976;48.174;16.370;2022-09-30T00:26:58;98254.52;;;14.43;70.76
70488;BME280;57976;48.174;16.370;2022-09-30T00:29:04;98251.27;;;14.45;71.09
70488;BME280;57976;48.174;16.370;2022-09-30T00:31:12;98247.05;;;14.46;70.80
70488;BME280;57976;48.174;16.370;2022-09-30T00:33:17;98249.15;;;14.42;70.95
70488;BME280;57976;48.174;16.370;2022-09-30T00:35:22;98248.14;;;14.42;71.13
70488;BME280;57976;48.174;16.370;2022-09-30T00:37:27;98252.69;;;14.42;71.37
70488;BME280;57976;48.174;16.370;2022-09-30T00:39:32;98249.95;;;14.41;71.22
70488;BME280;57976;48.174;16.370;2022-09-30T00:41:37;98251.94;;;14.42;71.62
70488;BME280;57976;48.174;16.370;2022-09-30T00:43:44;98251.37;;;14.43;71.65
70488;BME280;57976;48.174;16.370;2022-09-30T00:45:53;98252.36;;;14.46;71.63
70488;BME280;57976;48.174;16.370;2022-09-30T00:48:02;98252.64;;;14.47;71.63
70488;BME280;57976;48.174;16.370;2022-09-30T00:50:28;98258.00;;;14.46;71.84
70488;BME280;57976;48.174;16.370;2022-09-30T00:52:35;98255.32;;;14.46;71.77
70488;BME280;57976;48.174;16.370;2022-09-30T00:54:41;98256.51;;;14.47;72.06
70488;BME280;57976;48.174;16.370;2022-09-30T00:56:49;98257.64;;;14.47;72.08
70488;BME280;57976;48.174;16.370;2022-09-30T00:58:58;98256.23;;;14.47;71.94
70488;BME280;57976;48.174;16.370;2022-09-30T01:01:05;98246.90;;;14.46;72.06
70488;BME280;57976;48.174;16.370;2022-09-30T01:03:10;98250.73;;;14.45;72.21
70488;BME280;57976;48.174;16.370;2022-09-30T01:05:15;98252.64;;;14.43;72.42
70488;BME280;57976;48.174;16.370;2022-09-30T01:07:21;98251.48;;;14.43;72.60
70488;BME280;57976;48.174;16.370;2022-09-30T01:09:27;98248.84;;;14.43;72.84
70488;BME280;57976;48.174;16.370;2022-09-30T01:11:32;98252.31;;;14.41;73.01
70488;BME280;57976;48.174;16.370;2022-09-30T01:13:41;98251.58;;;14.33;73.28
70488;BME280;57976;48.174;16.370;2022-09-30T01:16:08;98246.20;;;14.26;73.54
70488;BME280;57976;48.174;16.370;2022-09-30T01:18:25;98246.97;;;14.18;74.57
70488;BME280;57976;48.174;16.370;2022-09-30T01:26:05;98244.36;;;13.80;77.46
70488;BME280;57976;48.174;16.370;2022-09-30T01:28:36;98246.96;;;13.74;77.64
70488;BME280;57976;48.174;16.370;2022-09-30T01:31:03;98245.48;;;13.76;78.29
70488;BME280;57976;48.174;16.370;2022-09-30T01:33:19;98253.63;;;13.80;78.64
70488;BME280;57976;48.174;16.370;2022-09-30T01:35:38;98252.98;;;13.84;78.75
70488;BME280;57976;48.174;16.370;2022-09-30T01:37:58;98254.38;;;13.84;79.17
70488;BME280;57976;48.174;16.370;2022-09-30T01:40:09;98257.03;;;13.87;79.27
70488;BME280;57976;48.174;16.370;2022-09-30T01:42:24;98258.36;;;13.91;79.47
70488;BME280;57976;48.174;16.370;2022-09-30T01:44:36;98258.28;;;13.92;79.66
70488;BME280;57976;48.174;16.370;2022-09-30T01:46:47;98258.30;;;13.93;80.13
70488;BME280;57976;48.174;16.370;2022-09-30T01:48:58;98255.89;;;13.95;80.21
70488;BME280;57976;48.174;16.370;2022-09-30T01:51:11;98256.34;;;13.95;80.81
70488;BME280;57976;48.174;16.370;2022-09-30T01:53:26;98262.38;;;13.94;80.80
70488;BME280;57976;48.174;16.370;2022-09-30T01:55:35;98258.23;;;13.91;81.30
70488;BME280;57976;48.174;16.370;2022-09-30T01:57:48;98259.54;;;13.87;81.74
70488;BME280;57976;48.174;16.370;2022-09-30T01:59:59;98261.98;;;13.85;82.43
70488;BME280;57976;48.174;16.370;2022-09-30T02:02:15;98259.09;;;13.84;82.51
70488;BME280;57976;48.174;16.370;2022-09-30T02:04:25;98256.55;;;13.83;82.78
70488;BME280;57976;48.174;16.370;2022-09-30T02:06:36;98256.13;;;13.84;83.41
70488;BME280;57976;48.174;16.370;2022-09-30T02:08:46;98261.59;;;13.79;83.23
70488;BME280;57976;48.174;16.370;2022-09-30T02:10:53;98259.30;;;13.70;83.60
70488;BME280;57976;48.174;16.370;2022-09-30T02:13:06;98264.46;;;13.60;84.28
70488;BME280;57976;48.174;16.370;2022-09-30T02:15:16;98263.45;;;13.49;84.54
70488;BME280;57976;48.174;16.370;2022-09-30T02:17:27;98265.58;;;13.41;84.92
70488;BME280;57976;48.174;16.370;2022-09-30T02:19:36;98263.73;;;13.33;85.49
70488;BME280;57976;48.174;16.370;2022-09-30T02:21:49;98262.91;;;13.28;85.90
70488;BME280;57976;48.174;16.370;2022-09-30T02:24:01;98268.50;;;13.28;86.45
70488;BME280;57976;48.174;16.370;2022-09-30T02:26:10;98267.06;;;13.30;86.46
70488;BME280;57976;48.174;16.370;2022-09-30T02:28:19;98266.11;;;13.30;86.70
70488;BME280;57976;48.174;16.370;2022-09-30T02:30:25;98269.33;;;13.31;86.17
70488;BME280;57976;48.174;16.370;2022-09-30T02:32:33;98268.78;;;13.30;86.79
70488;BME280;57976;48.174;16.370;2022-09-30T02:34:41;98272.77;;;13.32;87.21
70488;BME280;57976;48.174;16.370;2022-09-30T02:36:52;98275.97;;;13.31;86.93
70488;BME280;57976;48.174;16.370;2022-09-30T02:39:03;98281.11;;;13.28;87.08
70488;BME280;57976;48.174;16.370;2022-09-30T02:41:12;98278.00;;;13.27;88.12
70488;BME280;57976;48.174;16.370;2022-09-30T02:43:19;98278.41;;;13.30;88.40
70488;BME280;57976;48.174;16.370;2022-09-30T02:45:24;98278.91;;;13.31;88.51
70488;BME280;57976;48.174;16.370;2022-09-30T02:47:33;98280.55;;;13.33;88.94
70488;BME280;57976;48.174;16.370;2022-09-30T02:49:47;98283.98;;;13.27;88.74
70488;BME280;57976;48.174;16.370;2022-09-30T02:52:04;98287.63;;;13.21;89.16
70488;BME280;57976;48.174;16.370;2022-09-30T02:54:19;98290.19;;;13.14;89.34
70488;BME280;57976;48.174;16.370;2022-09-30T02:56:36;98287.70;;;13.07;89.92
70488;BME280;57976;48.174;16.370;2022-09-30T02:58:44;98292.34;;;13.01;90.05
70488;BME280;57976;48.174;16.370;2022-09-30T03:00:50;98290.77;;;12.97;90.71
70488;BME280;57976;48.174;16.370;2022-09-30T03:03:01;98290.33;;;12.96;91.48
70488;BME280;57976;48.174;16.370;2022-09-30T03:05:08;98285.52;;;12.96;91.53
70488;BME280;57976;48.174;16.370;2022-09-30T03:07:14;98284.91;;;12.95;91.82
70488;BME280;57976;48.174;16.370;2022-09-30T03:09:22;98289.69;;;12.93;91.77
70488;BME280;57976;48.174;16.370;2022-09-30T03:11:28;98288.66;;;12.92;92.54
70488;BME280;57976;48.174;16.370;2022-09-30T03:14:13;98291.70;;;12.92;92.58
70488;BME280;57976;48.174;16.370;2022-09-30T03:16:27;98289.77;;;12.92;93.24
70488;BME280;57976;48.174;16.370;2022-09-30T03:18:59;98288.24;;;12.90;93.18
70488;BME280;57976;48.174;16.370;2022-09-30T03:21:18;98290.23;;;12.88;93.35
70488;BME280;57976;48.174;16.370;2022-09-30T03:23:43;98292.76;;;12.85;93.89
70488;BME280;57976;48.174;16.370;2022-09-30T03:25:59;98294.79;;;12.81;93.88
70488;BME280;57976;48.174;16.370;2022-09-30T03:28:16;98294.44;;;12.80;94.41
70488;BME280;57976;48.174;16.370;2022-09-30T03:30:24;98293.29;;;12.76;94.43
70488;BME280;57976;48.174;16.370;2022-09-30T03:32:42;98291.19;;;12.75;94.77
70488;BME280;57976;48.174;16.370;2022-09-30T03:35:00;98296.54;;;12.73;95.24
70488;BME280;57976;48.174;16.370;2022-09-30T03:37:15;98298.41;;;12.70;95.33
70488;BME280;57976;48.174;16.370;2022-09-30T03:39:27;98299.75;;;12.70;96.11
70488;BME280;57976;48.174;16.370;2022-09-30T03:41:36;98299.73;;;12.69;95.90
70488;BME280;57976;48.174;16.370;2022-09-30T03:43:46;98299.70;;;12.67;96.34
70488;BME280;57976;48.174;16.370;2022-09-30T03:45:56;98309.77;;;12.66;96.24
70488;BME280;57976;48.174;16.370;2022-09-30T03:48:07;98308.73;;;12.62;96.11
70488;BME280;57976;48.174;16.370;2022-09-30T03:50:18;98311.30;;;12.55;96.31
70488;BME280;57976;48.174;16.370;2022-09-30T03:52:24;98315.14;;;12.52;96.83
70488;BME280;57976;48.174;16.370;2022-09-30T03:54:31;98320.38;;;12.50;97.24
70488;BME280;57976;48.174;16.370;2022-09-30T03:56:36;98322.95;;;12.48;97.15
70488;BME280;57976;48.174;16.370;2022-09-30T03:58:43;98320.23;;;12.45;97.38
70488;BME280;57976;48.174;16.370;2022-09-30T04:00:49;98322.80;;;12.43;97.51
70488;BME280;57976;48.174;16.370;2022-09-30T04:02:54;98324.63;;;12.44;98.38
70488;BME280;57976;48.174;16.370;2022-09-30T04:05:01;98327.73;;;12.44;98.47
70488;BME280;57976;48.174;16.370;2022-09-30T04:07:06;98329.85;;;12.45;99.03
70488;BME280;57976;48.174;16.370;2022-09-30T04:09:11;98330.75;;;12.45;98.58
70488;BME280;57976;48.174;16.370;2022-09-30T04:11:15;98329.23;;;12.42;98.91
70488;BME280;57976;48.174;16.370;2022-09-30T04:13:20;98329.48;;;12.40;98.80
70488;BME280;57976;48.174;16.370;2022-09-30T04:15:25;98332.93;;;12.37;98.64
70488;BME280;57976;48.174;16.370;2022-09-30T04:17:30;98335.07;;;12.34;98.87
70488;BME280;57976;48.174;16.370;2022-09-30T04:19:34;98339.91;;;12.33;99.48
70488;BME280;57976;48.174;16.370;2022-09-30T04:21:39;98340.66;;;12.31;99.57
70488;BME280;57976;48.174;16.370;2022-09-30T04:23:44;98342.56;;;12.30;99.97
70488;BME280;57976;48.174;16.370;2022-09-30T04:25:53;98346.93;;;12.27;99.95
70488;BME280;57976;48.174;16.370;2022-09-30T04:27:58;98349.19;;;12.25;100.00
70488;BME280;57976;48.174;16.370;2022-09-30T04:30:03;98350.55;;;12.23;100.00
70488;BME280;57976;48.174;16.370;2022-09-30T04:32:08;98352.05;;;12.19;100.00
70488;BME280;57976;48.174;16.370;2022-09-30T04:34:13;98351.63;;;12.16;100.00
70488;BME280;57976;48.174;16.370;2022-09-30T04:36:18;98357.75;;;12.16;100.00
70488;BME280;57976;48.174;16.370;2022-09-30T04:38:22;98358.77;;;12.12;100.00
70488;BME280;57976;48.174;16.370;2022-09-30T04:40:27;98364.10;;;12.04;100.00
70488;BME280;57976;48.174;16.370;2022-09-30T04:42:32;98366.25;;;11.97;100.00
70488;BME280;57976;48.174;16.370;2022-09-30T04:44:37;98368.14;;;11.91;100.00
70488;BME280;57976;48.174;16.370;2022-09-30T04:46:42;98375.44;;;11.88;100.00
70488;BME280;57976;48.174;16.370;2022-09-30T04:48:47;98378.63;;;11.84;100.00
70488;BME280;57976;48.174;16.370;2022-09-30T04:50:52;98381.48;;;11.79;100.00
70488;BME280;57976;48.174;16.370;2022-09-30T04:52:57;98382.95;;;11.76;100.00
70488;BME280;57976;48.174;16.370;2022-09-30T04:55:02;98386.04;;;11.75;100.00
70488;BME280;57976;48.174;16.370;2022-09-30T04:57:06;98390.30;;;11.75;100.00
70488;BME280;57976;48.174;16.370;2022-09-30T04:59:11;98398.42;;;11.73;100.00
70488;BME280;57976;48.174;16.370;2022-09-30T05:01:17;98396.50;;;11.73;100.00
70488;BME280;57976;48.174;16.370;2022-09-30T05:03:22;98395.58;;;11.72;100.00
70488;BME280;57976;48.174;16.370;2022-09-30T05:05:27;98402.73;;;11.71;100.00
70488;BME280;57976;48.174;16.370;2022-09-30T05:07:32;98401.61;;;11.72;100.00
70488;BME280;57976;48.174;16.370;2022-09-30T05:09:37;98404.66;;;11.73;100.00
70488;BME280;57976;48.174;16.370;2022-09-30T05:11:42;98411.71;;;11.74;100.00
70488;BME280;57976;48.174;16.370;2022-09-30T05:13:47;98413.46;;;11.75;100.00
70488;BME280;57976;48.174;16.370;2022-09-30T05:15:52;98419.33;;;11.75;100.00
70488;BME280;57976;48.174;16.370;2022-09-30T05:17:57;98421.17;;;11.76;100.00
70488;BME280;57976;48.174;16.370;2022-09-30T05:20:02;98425.35;;;11.79;100.00
70488;BME280;57976;48.174;16.370;2022-09-30T05:22:07;98429.34;;;11.81;100.00
70488;BME280;57976;48.174;16.370;2022-09-30T05:24:12;98431.96;;;11.81;100.00
70488;BME280;57976;48.174;16.370;2022-09-30T05:26:17;98436.65;;;11.78;100.00
70488;BME280;57976;48.174;16.370;2022-09-30T05:28:22;98443.66;;;11.73;100.00
70488;BME280;57976;48.174;16.370;2022-09-30T05:30:27;98440.48;;;11.68;100.00
70488;BME280;57976;48.174;16.370;2022-09-30T05:32:32;98444.23;;;11.65;100.00
70488;BME280;57976;48.174;16.370;2022-09-30T05:34:36;98450.58;;;11.63;100.00
70488;BME280;57976;48.174;16.370;2022-09-30T05:36:41;98451.68;;;11.60;100.00
70488;BME280;57976;48.174;16.370;2022-09-30T05:38:46;98456.97;;;11.58;100.00
70488;BME280;57976;48.174;16.370;2022-09-30T05:40:53;98461.57;;;11.55;100.00
70488;BME280;57976;48.174;16.370;2022-09-30T05:42:58;98467.23;;;11.55;100.00
70488;BME280;57976;48.174;16.370;2022-09-30T05:45:04;98468.79;;;11.55;100.00
70488;BME280;57976;48.174;16.370;2022-09-30T05:47:09;98475.92;;;11.56;100.00
70488;BME280;57976;48.174;16.370;2022-09-30T05:49:14;98473.53;;;11.53;100.00
70488;BME280;57976;48.174;16.370;2022-09-30T05:51:18;98479.20;;;11.53;100.00
70488;BME280;57976;48.174;16.370;2022-09-30T05:53:23;98478.97;;;11.53;100.00
70488;BME280;57976;48.174;16.370;2022-09-30T05:55:28;98479.44;;;11.50;100.00
70488;BME280;57976;48.174;16.370;2022-09-30T05:57:33;98487.01;;;11.50;100.00
70488;BME280;57976;48.174;16.370;2022-09-30T05:59:38;98485.91;;;11.49;100.00
70488;BME280;57976;48.174;16.370;2022-09-30T06:01:42;98488.88;;;11.48;100.00
70488;BME280;57976;48.174;16.370;2022-09-30T06:03:47;98492.42;;;11.49;100.00
70488;BME280;57976;48.174;16.370;2022-09-30T06:05:57;98493.27;;;11.51;100.00
70488;BME280;57976;48.174;16.370;2022-09-30T06:08:02;98494.77;;;11.55;100.00
70488;BME280;57976;48.174;16.370;2022-09-30T06:10:09;98503.71;;;11.58;100.00
70488;BME280;57976;48.174;16.370;2022-09-30T06:12:14;98505.59;;;11.59;100.00
70488;BME280;57976;48.174;16.370;2022-09-30T06:14:18;98511.47;;;11.59;100.00
70488;BME280;57976;48.174;16.370;2022-09-30T06:16:24;98515.74;;;11.60;100.00
70488;BME280;57976;48.174;16.370;2022-09-30T06:18:29;98515.78;;;11.63;100.00
70488;BME280;57976;48.174;16.370;2022-09-30T06:20:34;98520.52;;;11.66;100.00
70488;BME280;57976;48.174;16.370;2022-09-30T06:22:39;98527.00;;;11.70;100.00
70488;BME280;57976;48.174;16.370;2022-09-30T06:24:44;98526.02;;;11.72;100.00
70488;BME280;57976;48.174;16.370;2022-09-30T06:26:49;98527.62;;;11.76;100.00
70488;BME280;57976;48.174;16.370;2022-09-30T06:28:54;98524.71;;;11.75;100.00
70488;BME280;57976;48.174;16.370;2022-09-30T06:30:59;98529.55;;;11.78;100.00
70488;BME280;57976;48.174;16.370;2022-09-30T06:33:04;98530.11;;;11.79;100.00
70488;BME280;57976;48.174;16.370;2022-09-30T06:35:09;98535.77;;;11.79;100.00
70488;BME280;57976;48.174;16.370;2022-09-30T06:37:14;98538.02;;;11.77;100.00
70488;BME280;57976;48.174;16.370;2022-09-30T06:39:18;98540.52;;;11.76;100.00
70488;BME280;57976;48.174;16.370;2022-09-30T06:41:23;98544.33;;;11.75;100.00
70488;BME280;57976;48.174;16.370;2022-09-30T06:43:28;98543.77;;;11.75;100.00
70488;BME280;57976;48.174;16.370;2022-09-30T06:45:34;98547.17;;;11.74;100.00
70488;BME280;57976;48.174;16.370;2022-09-30T06:47:39;98553.96;;;11.73;100.00
70488;BME280;57976;48.174;16.370;2022-09-30T06:49:51;98559.52;;;11.73;100.00
70488;BME280;57976;48.174;16.370;2022-09-30T06:51:56;98562.11;;;11.72;100.00
70488;BME280;57976;48.174;16.370;2022-09-30T06:54:00;98561.70;;;11.72;100.00
70488;BME280;57976;48.174;16.370;2022-09-30T06:56:05;98562.95;;;11.74;100.00
70488;BME280;57976;48.174;16.370;2022-09-30T06:58:14;98564.08;;;11.76;100.00
70488;BME280;57976;48.174;16.370;2022-09-30T07:00:19;98569.04;;;11.78;100.00
70488;BME280;57976;48.174;16.370;2022-09-30T07:02:23;98568.09;;;11.78;100.00
70488;BME280;57976;48.174;16.370;2022-09-30T07:04:28;98572.75;;;11.77;100.00
70488;BME280;57976;48.174;16.370;2022-09-30T07:06:33;98577.38;;;11.76;100.00
70488;BME280;57976;48.174;16.370;2022-09-30T07:08:38;98579.83;;;11.76;100.00
70488;BME280;57976;48.174;16.370;2022-09-30T07:10:46;98584.20;;;11.74;100.00
70488;BME280;57976;48.174;16.370;2022-09-30T07:12:52;98584.68;;;11.72;100.00
70488;BME280;57976;48.174;16.370;2022-09-30T07:14:57;98587.48;;;11.75;100.00
70488;BME280;57976;48.174;16.370;2022-09-30T07:17:01;98588.19;;;11.77;100.00
70488;BME280;57976;48.174;16.370;2022-09-30T07:19:07;98587.82;;;11.77;100.00
70488;BME280;57976;48.174;16.370;2022-09-30T07:21:12;98593.62;;;11.77;100.00
70488;BME280;57976;48.174;16.370;2022-09-30T07:23:18;98591.10;;;11.74;100.00
70488;BME280;57976;48.174;16.370;2022-09-30T07:25:29;98594.13;;;11.72;100.00
70488;BME280;57976;48.174;16.370;2022-09-30T07:27:34;98597.02;;;11.71;100.00
70488;BME280;57976;48.174;16.370;2022-09-30T07:29:38;98591.70;;;11.69;100.00
70488;BME280;57976;48.174;16.370;2022-09-30T07:32:03;98598.02;;;11.70;100.00
70488;BME280;57976;48.174;16.370;2022-09-30T07:34:09;98600.39;;;11.70;100.00
70488;BME280;57976;48.174;16.370;2022-09-30T07:36:14;98604.02;;;11.75;100.00
70488;BME280;57976;48.174;16.370;2022-09-30T07:38:20;98604.53;;;11.80;100.00
70488;BME280;57976;48.174;16.370;2022-09-30T07:40:25;98608.73;;;11.85;100.00
70488;BME280;57976;48.174;16.370;2022-09-30T07:42:31;98612.92;;;11.92;100.00
70488;BME280;57976;48.174;16.370;2022-09-30T07:44:37;98615.80;;;11.96;100.00
70488;BME280;57976;48.174;16.370;2022-09-30T07:46:42;98609.35;;;11.96;100.00
70488;BME280;57976;48.174;16.370;2022-09-30T07:48:48;98615.80;;;12.00;100.00
70488;BME280;57976;48.174;16.370;2022-09-30T07:50:55;98615.21;;;12.00;100.00
70488;BME280;57976;48.174;16.370;2022-09-30T07:53:00;98620.55;;;12.00;100.00
70488;BME280;57976;48.174;16.370;2022-09-30T07:55:05;98618.20;;;12.00;100.00
70488;BME280;57976;48.174;16.370;2022-09-30T07:57:10;98618.38;;;12.03;100.00
70488;BME280;57976;48.174;16.370;2022-09-30T07:59:16;98627.30;;;12.07;100.00
70488;BME280;57976;48.174;16.370;2022-09-30T08:01:22;98625.28;;;12.11;100.00
70488;BME280;57976;48.174;16.370;2022-09-30T08:03:27;98635.55;;;12.14;99.98
70488;BME280;57976;48.174;16.370;2022-09-30T08:05:32;98633.09;;;12.16;99.57
70488;BME280;57976;48.174;16.370;2022-09-30T08:07:42;98633.77;;;12.17;99.37
70488;BME280;57976;48.174;16.370;2022-09-30T08:09:46;98634.77;;;12.19;99.59
70488;BME280;57976;48.174;16.370;2022-09-30T08:11:51;98639.20;;;12.25;99.79
70488;BME280;57976;48.174;16.370;2022-09-30T08:13:57;98647.72;;;12.32;99.26
70488;BME280;57976;48.174;16.370;2022-09-30T08:16:02;98653.63;;;12.35;98.77
70488;BME280;57976;48.174;16.370;2022-09-30T08:18:07;98655.19;;;12.36;98.61
70488;BME280;57976;48.174;16.370;2022-09-30T08:20:12;98660.29;;;12.39;98.51
70488;BME280;57976;48.174;16.370;2022-09-30T08:22:21;98664.94;;;12.41;98.37
70488;BME280;57976;48.174;16.370;2022-09-30T08:24:26;98678.00;;;12.42;97.49
70488;BME280;57976;48.174;16.370;2022-09-30T08:26:31;98674.87;;;12.41;97.72
70488;BME280;57976;48.174;16.370;2022-09-30T08:28:36;98675.69;;;12.41;98.04
70488;BME280;57976;48.174;16.370;2022-09-30T08:30:42;98676.88;;;12.44;98.03
70488;BME280;57976;48.174;16.370;2022-09-30T08:32:48;98676.89;;;12.47;97.94
70488;BME280;57976;48.174;16.370;2022-09-30T08:34:53;98685.16;;;12.52;98.27
70488;BME280;57976;48.174;16.370;2022-09-30T08:36:57;98687.11;;;12.55;97.76
70488;BME280;57976;48.174;16.370;2022-09-30T08:39:03;98694.48;;;12.55;97.37
70488;BME280;57976;48.174;16.370;2022-09-30T08:41:24;98696.20;;;12.52;97.33
70488;BME280;57976;48.174;16.370;2022-09-30T08:43:37;98695.40;;;12.48;97.68
70488;BME280;57976;48.174;16.370;2022-09-30T08:45:52;98701.27;;;12.45;97.39
70488;BME280;57976;48.174;16.370;2022-09-30T08:48:05;98699.70;;;12.40;97.34
70488;BME280;57976;48.174;16.370;2022-09-30T08:50:22;98703.29;;;12.39;97.95
70488;BME280;57976;48.174;16.370;2022-09-30T08:52:33;98701.91;;;12.41;97.84
70488;BME280;57976;48.174;16.370;2022-09-30T08:54:54;98702.22;;;12.45;98.22
70488;BME280;57976;48.174;16.370;2022-09-30T08:57:01;98703.63;;;12.50;97.90
70488;BME280;57976;48.174;16.370;2022-09-30T08:59:13;98704.63;;;12.49;97.65
70488;BME280;57976;48.174;16.370;2022-09-30T09:01:25;98711.44;;;12.48;97.26
70488;BME280;57976;48.174;16.370;2022-09-30T09:03:33;98703.63;;;12.45;97.18
70488;BME280;57976;48.174;16.370;2022-09-30T09:05:46;98701.46;;;12.46;97.27
70488;BME280;57976;48.174;16.370;2022-09-30T09:08:02;98699.55;;;12.51;97.35
70488;BME280;57976;48.174;16.370;2022-09-30T09:10:14;98694.41;;;12.62;97.98
70488;BME280;57976;48.174;16.370;2022-09-30T09:12:30;98689.49;;;12.74;97.24
70488;BME280;57976;48.174;16.370;2022-09-30T09:14:48;98692.83;;;12.84;96.32
70488;BME280;57976;48.174;16.370;2022-09-30T09:17:06;98689.63;;;12.89;96.06
70488;BME280;57976;48.174;16.370;2022-09-30T09:19:22;98686.09;;;12.95;96.25
70488;BME280;57976;48.174;16.370;2022-09-30T09:21:40;98690.10;;;13.03;96.24
70488;BME280;57976;48.174;16.370;2022-09-30T09:23:50;98702.63;;;13.12;95.44
70488;BME280;57976;48.174;16.370;2022-09-30T09:25:56;98700.35;;;13.13;94.56
70488;BME280;57976;48.174;16.370;2022-09-30T09:28:04;98702.27;;;13.13;94.69
70488;BME280;57976;48.174;16.370;2022-09-30T09:30:12;98703.21;;;13.14;94.68
70488;BME280;57976;48.174;16.370;2022-09-30T09:32:19;98709.48;;;13.19;94.59
70488;BME280;57976;48.174;16.370;2022-09-30T09:34:25;98714.89;;;13.24;94.01
70488;BME280;57976;48.174;16.370;2022-09-30T09:36:40;98716.77;;;13.26;93.99
70488;BME280;57976;48.174;16.370;2022-09-30T09:38:59;98714.55;;;13.30;93.24
70488;BME280;57976;48.174;16.370;2022-09-30T09:41:19;98721.95;;;13.36;93.59
70488;BME280;57976;48.174;16.370;2022-09-30T09:43:40;98722.33;;;13.43;93.51
70488;BME280;57976;48.174;16.370;2022-09-30T09:45:56;98725.85;;;13.48;92.16
70488;BME280;57976;48.174;16.370;2022-09-30T09:48:02;98724.09;;;13.45;91.61
70488;BME280;57976;48.174;16.370;2022-09-30T09:50:16;98728.38;;;13.45;91.82
70488;BME280;57976;48.174;16.370;2022-09-30T09:55:05;98724.20;;;13.50;91.17
70488;BME280;57976;48.174;16.370;2022-09-30T09:57:12;98728.63;;;13.54;91.22
70488;BME280;57976;48.174;16.370;2022-09-30T09:59:19;98727.00;;;13.57;90.58
70488;BME280;57976;48.174;16.370;2022-09-30T10:01:24;98731.33;;;13.61;90.17
70488;BME280;57976;48.174;16.370;2022-09-30T10:03:28;98731.94;;;13.61;89.45
70488;BME280;57976;48.174;16.370;2022-09-30T10:05:34;98742.16;;;13.58;88.92
70488;BME280;57976;48.174;16.370;2022-09-30T10:07:39;98739.30;;;13.55;89.00
70488;BME280;57976;48.174;16.370;2022-09-30T10:09:44;98747.14;;;13.54;89.02
70488;BME280;57976;48.174;16.370;2022-09-30T10:11:50;98749.29;;;13.58;89.65
70488;BME280;57976;48.174;16.370;2022-09-30T10:13:57;98756.63;;;13.67;89.67
70488;BME280;57976;48.174;16.370;2022-09-30T10:16:03;98761.54;;;13.70;88.97
70488;BME280;57976;48.174;16.370;2022-09-30T10:18:17;98771.69;;;13.72;88.75
70488;BME280;57976;48.174;16.370;2022-09-30T10:20:28;98773.70;;;13.74;88.87
70488;BME280;57976;48.174;16.370;2022-09-30T10:22:35;98777.59;;;13.75;88.76
70488;BME280;57976;48.174;16.370;2022-09-30T10:24:40;98784.39;;;13.75;88.60
70488;BME280;57976;48.174;16.370;2022-09-30T10:26:45;98788.27;;;13.73;88.34
70488;BME280;57976;48.174;16.370;2022-09-30T10:28:54;98795.22;;;13.71;88.05
70488;BME280;57976;48.174;16.370;2022-09-30T10:31:02;98796.99;;;13.66;88.28
70488;BME280;57976;48.174;16.370;2022-09-30T10:33:22;98795.41;;;13.65;88.35
70488;BME280;57976;48.174;16.370;2022-09-30T10:35:27;98788.42;;;13.69;88.84
70488;BME280;57976;48.174;16.370;2022-09-30T10:37:32;98793.77;;;13.80;88.94
70488;BME280;57976;48.174;16.370;2022-09-30T10:39:38;98792.63;;;13.86;88.54
70488;BME280;57976;48.174;16.370;2022-09-30T10:41:45;98798.84;;;13.91;88.50
70488;BME280;57976;48.174;16.370;2022-09-30T10:43:53;98807.63;;;13.96;88.56
70488;BME280;57976;48.174;16.370;2022-09-30T10:45:59;98815.51;;;14.00;87.77
70488;BME280;57976;48.174;16.370;2022-09-30T10:48:32;98815.82;;;14.03;87.81
70488;BME280;57976;48.174;16.370;2022-09-30T10:50:38;98816.83;;;14.11;87.27
70488;BME280;57976;48.174;16.370;2022-09-30T10:52:55;98814.52;;;14.16;86.33
70488;BME280;57976;48.174;16.370;2022-09-30T10:55:05;98808.36;;;14.16;86.03
70488;BME280;57976;48.174;16.370;2022-09-30T10:57:22;98803.03;;;14.17;85.87
70488;BME280;57976;48.174;16.370;2022-09-30T10:59:32;98803.10;;;14.20;86.14
70488;BME280;57976;48.174;16.370;2022-09-30T11:01:42;98798.17;;;14.28;87.09
70488;BME280;57976;48.174;16.370;2022-09-30T11:03:55;98799.86;;;14.39;85.31
70488;BME280;57976;48.174;16.370;2022-09-30T11:06:03;98796.59;;;14.41;85.49
70488;BME280;57976;48.174;16.370;2022-09-30T11:08:15;98797.42;;;14.43;84.47
70488;BME280;57976;48.174;16.370;2022-09-30T11:10:35;98808.73;;;14.38;84.46
70488;BME280;57976;48.174;16.370;2022-09-30T11:12:45;98810.77;;;14.38;84.82
70488;BME280;57976;48.174;16.370;2022-09-30T11:15:00;98823.13;;;14.40;84.10
70488;BME280;57976;48.174;16.370;2022-09-30T11:17:14;98823.49;;;14.36;84.05
70488;BME280;57976;48.174;16.370;2022-09-30T11:19:29;98836.58;;;14.34;83.67